SAVV/VDM METAR and TAF weather

Enter ICAO airport designator
Station Type Date Time Source
SAVV METAR 2021/04/23 13:34 UTC NOAA

SAVV 231334Z 32003KT 280V360 9999 NSC 11/10 Q1014


Station Type Date Time Source
SAVV Decoded METAR 2021/04/23 13:34 UTC NOAA

Viedma Aerodrome, Argentina (SAVV) 40-51S 063-01W 7M
Apr 23, 2021 - 09:34 AM EDT / 2021.04.23 1334 UTC
Wind: from the NW (320 degrees) at 3 MPH (3 KT) (direction variable):0
Visibility: greater than 7 mile(s):0
Temperature: 51 F (11 C)
Dew Point: 50 F (10 C)
Relative Humidity: 93%
Pressure (altimeter): 29.94 in. Hg (1014 hPa)
ob: SAVV 231334Z 32003KT 280V360 9999 NSC 11/10 Q1014
cycle: 13

Station Type Date Time Source
SAVV TAF 2021/04/23 04:33 UTC NOAA

TAF
AMD TAF
AMD SAVV 230430Z 2304/2324 VRB03KT 0300 FG NSC TX26/2318Z TN08/2310Z
BECMG 2310/2312 29010KT CAVOK

Example: see airport list